sensor_id;sensor_type;location;lat;lon;timestamp;noise_LAeq;noise_LA_min;noise_LA_max;noise_LA01;noise_LA95
69619;Laerm;57653;51.434;5.984;2023-04-15T00:00:07;34.20;31.28;42.29;;
69619;Laerm;57653;51.434;5.984;2023-04-15T00:00:17;33.80;31.35;40.53;;
69619;Laerm;57653;51.434;5.984;2023-04-15T00:00:27;32.40;31.22;33.54;;
69619;Laerm;57653;51.434;5.984;2023-04-15T00:00:40;32.41;31.32;33.38;;
69619;Laerm;57653;51.434;5.984;2023-04-15T00:00:51;32.37;31.35;33.24;;
69619;Laerm;57653;51.434;5.984;2023-04-15T00:01:01;32.38;31.12;33.41;;
69619;Laerm;57653;51.434;5.984;2023-04-15T00:01:11;32.36;31.27;33.55;;
69619;Laerm;57653;51.434;5.984;2023-04-15T00:01:27;32.51;31.19;33.50;;
69619;Laerm;57653;51.434;5.984;2023-04-15T00:01:39;32.58;31.17;33.58;;
69619;Laerm;57653;51.434;5.984;2023-04-15T00:01:49;32.68;31.42;37.63;;
69619;Laerm;57653;51.434;5.984;2023-04-15T00:01:59;32.64;31.58;33.86;;
69619;Laerm;57653;51.434;5.984;2023-04-15T00:02:15;32.55;31.32;33.57;;
69619;Laerm;57653;51.434;5.984;2023-04-15T00:02:27;32.51;31.26;33.82;;
69619;Laerm;57653;51.434;5.984;2023-04-15T00:02:38;32.50;31.33;33.49;;
69619;Laerm;57653;51.434;5.984;2023-04-15T00:02:48;32.51;31.34;33.63;;
69619;Laerm;57653;51.434;5.984;2023-04-15T00:02:59;32.68;31.42;34.40;;
69619;Laerm;57653;51.434;5.984;2023-04-15T00:03:11;32.79;31.66;34.13;;
69619;Laerm;57653;51.434;5.984;2023-04-15T00:03:21;32.75;31.61;33.94;;
69619;Laerm;57653;51.434;5.984;2023-04-15T00:03:31;32.77;31.16;33.95;;
69619;Laerm;57653;51.434;5.984;2023-04-15T00:03:43;33.75;31.92;36.91;;
69619;Laerm;57653;51.434;5.984;2023-04-15T00:03:53;33.55;32.28;34.83;;
69619;Laerm;57653;51.434;5.984;2023-04-15T00:04:04;34.83;33.07;37.19;;
69619;Laerm;57653;51.434;5.984;2023-04-15T00:04:14;39.20;33.66;44.97;;
69619;Laerm;57653;51.434;5.984;2023-04-15T00:04:24;54.92;42.31;61.15;;
69619;Laerm;57653;51.434;5.984;2023-04-15T00:04:35;61.03;57.96;63.68;;
69619;Laerm;57653;51.434;5.984;2023-04-15T00:04:46;52.69;38.75;60.35;;
69619;Laerm;57653;51.434;5.984;2023-04-15T00:04:57;35.96;32.25;41.73;;
69619;Laerm;57653;51.434;5.984;2023-04-15T00:05:07;32.68;31.34;33.91;;
69619;Laerm;57653;51.434;5.984;2023-04-15T00:05:17;32.47;31.41;33.49;;
69619;Laerm;57653;51.434;5.984;2023-04-15T00:05:28;32.44;31.47;33.45;;
69619;Laerm;57653;51.434;5.984;2023-04-15T00:05:39;32.40;31.31;33.37;;
69619;Laerm;57653;51.434;5.984;2023-04-15T00:05:49;32.41;31.35;33.37;;
69619;Laerm;57653;51.434;5.984;2023-04-15T00:05:59;32.35;31.40;33.30;;
69619;Laerm;57653;51.434;5.984;2023-04-15T00:06:10;32.37;31.35;33.28;;
69619;Laerm;57653;51.434;5.984;2023-04-15T00:06:21;32.37;31.43;33.57;;
69619;Laerm;57653;51.434;5.984;2023-04-15T00:06:31;32.37;31.22;33.94;;
69619;Laerm;57653;51.434;5.984;2023-04-15T00:06:42;32.34;31.32;33.41;;
69619;Laerm;57653;51.434;5.984;2023-04-15T00:06:52;32.38;31.19;33.63;;
69619;Laerm;57653;51.434;5.984;2023-04-15T00:07:02;32.34;31.20;33.32;;
69619;Laerm;57653;51.434;5.984;2023-04-15T00:07:13;32.40;31.42;33.38;;
69619;Laerm;57653;51.434;5.984;2023-04-15T00:07:23;32.38;31.08;33.17;;
69619;Laerm;57653;51.434;5.984;2023-04-15T00:07:34;32.31;31.21;33.45;;
69619;Laerm;57653;51.434;5.984;2023-04-15T00:07:44;32.32;31.49;33.14;;
69619;Laerm;57653;51.434;5.984;2023-04-15T00:07:56;32.32;31.17;33.32;;
69619;Laerm;57653;51.434;5.984;2023-04-15T00:08:07;32.38;31.13;33.53;;
69619;Laerm;57653;51.434;5.984;2023-04-15T00:08:18;32.36;31.31;33.56;;
69619;Laerm;57653;51.434;5.984;2023-04-15T00:08:29;32.37;31.02;33.69;;
69619;Laerm;57653;51.434;5.984;2023-04-15T00:08:40;32.35;31.26;33.35;;
69619;Laerm;57653;51.434;5.984;2023-04-15T00:08:50;32.39;31.50;33.55;;
69619;Laerm;57653;51.434;5.984;2023-04-15T00:09:01;32.57;31.43;33.55;;
69619;Laerm;57653;51.434;5.984;2023-04-15T00:09:11;32.84;31.66;34.10;;
69619;Laerm;57653;51.434;5.984;2023-04-15T00:09:21;32.60;31.32;33.69;;
69619;Laerm;57653;51.434;5.984;2023-04-15T00:09:32;33.19;31.85;35.69;;
69619;Laerm;57653;51.434;5.984;2023-04-15T00:09:42;36.09;32.51;43.36;;
69619;Laerm;57653;51.434;5.984;2023-04-15T00:09:53;35.13;31.78;41.16;;
69619;Laerm;57653;51.434;5.984;2023-04-15T00:10:06;32.79;31.20;34.65;;
69619;Laerm;57653;51.434;5.984;2023-04-15T00:10:17;32.56;31.33;33.68;;
69619;Laerm;57653;51.434;5.984;2023-04-15T00:10:27;32.44;31.28;33.54;;
69619;Laerm;57653;51.434;5.984;2023-04-15T00:10:37;32.68;31.09;35.38;;
69619;Laerm;57653;51.434;5.984;2023-04-15T00:10:48;32.45;31.18;33.65;;
69619;Laerm;57653;51.434;5.984;2023-04-15T00:10:58;32.30;31.26;33.63;;
69619;Laerm;57653;51.434;5.984;2023-04-15T00:11:11;32.30;31.13;33.28;;
69619;Laerm;57653;51.434;5.984;2023-04-15T00:11:22;32.33;31.15;33.50;;
69619;Laerm;57653;51.434;5.984;2023-04-15T00:11:33;32.34;31.35;33.37;;
69619;Laerm;57653;51.434;5.984;2023-04-15T00:11:44;32.28;31.27;33.27;;
69619;Laerm;57653;51.434;5.984;2023-04-15T00:11:54;32.28;31.09;33.64;;
69619;Laerm;57653;51.434;5.984;2023-04-15T00:12:04;32.24;30.87;33.67;;
69619;Laerm;57653;51.434;5.984;2023-04-15T00:12:15;32.28;30.82;33.45;;
69619;Laerm;57653;51.434;5.984;2023-04-15T00:12:25;32.24;31.02;33.28;;
69619;Laerm;57653;51.434;5.984;2023-04-15T00:12:36;32.22;31.22;33.46;;
69619;Laerm;57653;51.434;5.984;2023-04-15T00:12:46;32.21;31.12;33.37;;
69619;Laerm;57653;51.434;5.984;2023-04-15T00:12:56;32.23;30.88;33.26;;
69619;Laerm;57653;51.434;5.984;2023-04-15T00:13:07;32.19;31.00;33.20;;
69619;Laerm;57653;51.434;5.984;2023-04-15T00:13:18;32.22;31.14;33.11;;
69619;Laerm;57653;51.434;5.984;2023-04-15T00:13:29;32.20;31.22;33.11;;
69619;Laerm;57653;51.434;5.984;2023-04-15T00:13:40;32.24;31.15;33.53;;
69619;Laerm;57653;51.434;5.984;2023-04-15T00:13:50;32.24;31.25;33.05;;
69619;Laerm;57653;51.434;5.984;2023-04-15T00:14:01;32.24;30.76;33.59;;
69619;Laerm;57653;51.434;5.984;2023-04-15T00:14:11;32.28;31.22;33.71;;
69619;Laerm;57653;51.434;5.984;2023-04-15T00:14:22;32.26;31.12;33.27;;
69619;Laerm;57653;51.434;5.984;2023-04-15T00:14:33;32.33;31.40;33.36;;
69619;Laerm;57653;51.434;5.984;2023-04-15T00:14:43;32.28;31.15;33.24;;
69619;Laerm;57653;51.434;5.984;2023-04-15T00:14:54;32.30;31.09;33.37;;
69619;Laerm;57653;51.434;5.984;2023-04-15T00:15:06;32.31;30.92;33.71;;
69619;Laerm;57653;51.434;5.984;2023-04-15T00:15:18;32.28;31.15;33.37;;
69619;Laerm;57653;51.434;5.984;2023-04-15T00:15:28;32.35;31.00;33.40;;
69619;Laerm;57653;51.434;5.984;2023-04-15T00:15:39;32.38;31.14;33.46;;
69619;Laerm;57653;51.434;5.984;2023-04-15T00:15:49;32.37;31.22;33.40;;
69619;Laerm;57653;51.434;5.984;2023-04-15T00:16:00;32.42;30.92;33.45;;
69619;Laerm;57653;51.434;5.984;2023-04-15T00:16:10;32.33;31.08;33.27;;
69619;Laerm;57653;51.434;5.984;2023-04-15T00:16:21;32.36;31.35;33.37;;
69619;Laerm;57653;51.434;5.984;2023-04-15T00:16:31;32.42;31.31;33.55;;
69619;Laerm;57653;51.434;5.984;2023-04-15T00:16:42;32.41;31.40;33.65;;
69619;Laerm;57653;51.434;5.984;2023-04-15T00:16:52;32.35;31.14;33.27;;
69619;Laerm;57653;51.434;5.984;2023-04-15T00:17:05;32.54;31.38;33.90;;
69619;Laerm;57653;51.434;5.984;2023-04-15T00:17:15;32.86;31.61;33.86;;
69619;Laerm;57653;51.434;5.984;2023-04-15T00:17:26;32.88;31.43;34.32;;
69619;Laerm;57653;51.434;5.984;2023-04-15T00:17:36;33.02;31.61;34.26;;
69619;Laerm;57653;51.434;5.984;2023-04-15T00:17:49;34.62;32.17;37.85;;
69619;Laerm;57653;51.434;5.984;2023-04-15T00:18:00;34.04;31.98;36.22;;
69619;Laerm;57653;51.434;5.984;2023-04-15T00:18:10;33.12;31.48;35.50;;
69619;Laerm;57653;51.434;5.984;2023-04-15T00:18:20;33.33;31.55;35.58;;
69619;Laerm;57653;51.434;5.984;2023-04-15T00:18:31;33.02;31.25;35.73;;
69619;Laerm;57653;51.434;5.984;2023-04-15T00:18:41;32.68;31.62;34.53;;
69619;Laerm;57653;51.434;5.984;2023-04-15T00:18:51;32.62;31.21;37.67;;
69619;Laerm;57653;51.434;5.984;2023-04-15T00:19:02;32.43;31.17;33.57;;
69619;Laerm;57653;51.434;5.984;2023-04-15T00:19:12;32.46;31.43;33.59;;
69619;Laerm;57653;51.434;5.984;2023-04-15T00:19:22;32.45;31.43;33.51;;
69619;Laerm;57653;51.434;5.984;2023-04-15T00:19:33;32.41;31.34;33.39;;
69619;Laerm;57653;51.434;5.984;2023-04-15T00:19:43;32.41;31.09;33.50;;
69619;Laerm;57653;51.434;5.984;2023-04-15T00:19:56;32.40;31.23;33.30;;
69619;Laerm;57653;51.434;5.984;2023-04-15T00:20:06;32.39;31.46;33.16;;
69619;Laerm;57653;51.434;5.984;2023-04-15T00:20:17;32.40;31.25;33.70;;
69619;Laerm;57653;51.434;5.984;2023-04-15T00:20:27;32.40;31.44;33.49;;
69619;Laerm;57653;51.434;5.984;2023-04-15T00:20:37;32.53;31.64;33.76;;
69619;Laerm;57653;51.434;5.984;2023-04-15T00:20:47;32.53;31.22;33.49;;
69619;Laerm;57653;51.434;5.984;2023-04-15T00:20:58;36.52;31.63;45.88;;
69619;Laerm;57653;51.434;5.984;2023-04-15T00:21:08;60.52;44.90;65.25;;
69619;Laerm;57653;51.434;5.984;2023-04-15T00:21:18;50.23;38.41;58.74;;
69619;Laerm;57653;51.434;5.984;2023-04-15T00:21:29;35.30;32.72;39.04;;
69619;Laerm;57653;51.434;5.984;2023-04-15T00:21:39;33.67;32.18;35.81;;
69619;Laerm;57653;51.434;5.984;2023-04-15T00:21:49;34.31;32.00;36.97;;
69619;Laerm;57653;51.434;5.984;2023-04-15T00:22:00;32.92;31.64;34.09;;
69619;Laerm;57653;51.434;5.984;2023-04-15T00:22:11;32.62;31.22;33.49;;
69619;Laerm;57653;51.434;5.984;2023-04-15T00:22:21;32.73;31.51;33.63;;
69619;Laerm;57653;51.434;5.984;2023-04-15T00:22:31;32.56;31.12;33.60;;
69619;Laerm;57653;51.434;5.984;2023-04-15T00:22:42;32.48;31.44;33.61;;
69619;Laerm;57653;51.434;5.984;2023-04-15T00:22:52;32.47;31.28;33.39;;
69619;Laerm;57653;51.434;5.984;2023-04-15T00:23:02;32.49;31.18;33.54;;
69619;Laerm;57653;51.434;5.984;2023-04-15T00:23:13;32.53;31.50;33.67;;
69619;Laerm;57653;51.434;5.984;2023-04-15T00:23:23;32.50;31.19;33.48;;
69619;Laerm;57653;51.434;5.984;2023-04-15T00:23:33;32.51;31.28;33.83;;
69619;Laerm;57653;51.434;5.984;2023-04-15T00:23:45;32.45;31.40;33.66;;
69619;Laerm;57653;51.434;5.984;2023-04-15T00:24:01;32.46;31.40;33.41;;
69619;Laerm;57653;51.434;5.984;2023-04-15T00:24:12;32.44;31.32;33.60;;
69619;Laerm;57653;51.434;5.984;2023-04-15T00:24:23;32.47;30.94;33.56;;
69619;Laerm;57653;51.434;5.984;2023-04-15T00:24:33;32.49;31.25;34.36;;
69619;Laerm;57653;51.434;5.984;2023-04-15T00:24:43;32.47;31.43;33.52;;
69619;Laerm;57653;51.434;5.984;2023-04-15T00:24:54;32.48;31.37;33.46;;
69619;Laerm;57653;51.434;5.984;2023-04-15T00:25:04;32.50;31.37;33.87;;
69619;Laerm;57653;51.434;5.984;2023-04-15T00:25:14;32.63;31.62;33.92;;
69619;Laerm;57653;51.434;5.984;2023-04-15T00:25:25;32.53;31.41;34.76;;
69619;Laerm;57653;51.434;5.984;2023-04-15T00:25:35;32.53;31.34;33.76;;
69619;Laerm;57653;51.434;5.984;2023-04-15T00:25:45;32.52;31.35;33.86;;
69619;Laerm;57653;51.434;5.984;2023-04-15T00:25:56;32.58;31.60;33.66;;
69619;Laerm;57653;51.434;5.984;2023-04-15T00:26:06;32.57;31.31;33.94;;
69619;Laerm;57653;51.434;5.984;2023-04-15T00:26:16;32.55;31.60;33.54;;
69619;Laerm;57653;51.434;5.984;2023-04-15T00:26:28;32.55;31.34;33.74;;
69619;Laerm;57653;51.434;5.984;2023-04-15T00:26:38;32.52;31.34;33.52;;
69619;Laerm;57653;51.434;5.984;2023-04-15T00:26:48;32.52;31.30;33.50;;
69619;Laerm;57653;51.434;5.984;2023-04-15T00:26:59;32.51;31.30;33.51;;
69619;Laerm;57653;51.434;5.984;2023-04-15T00:27:09;32.51;31.57;33.71;;
69619;Laerm;57653;51.434;5.984;2023-04-15T00:27:20;32.62;31.15;33.68;;
69619;Laerm;57653;51.434;5.984;2023-04-15T00:27:30;32.54;31.07;33.56;;
69619;Laerm;57653;51.434;5.984;2023-04-15T00:27:41;32.58;31.34;33.83;;
69619;Laerm;57653;51.434;5.984;2023-04-15T00:27:51;32.60;31.59;33.59;;
69619;Laerm;57653;51.434;5.984;2023-04-15T00:28:01;32.64;31.64;33.52;;
69619;Laerm;57653;51.434;5.984;2023-04-15T00:28:11;32.69;31.67;34.04;;
69619;Laerm;57653;51.434;5.984;2023-04-15T00:28:22;32.86;31.71;33.97;;
69619;Laerm;57653;51.434;5.984;2023-04-15T00:28:33;32.82;31.68;33.92;;
69619;Laerm;57653;51.434;5.984;2023-04-15T00:28:43;33.76;31.89;38.18;;
69619;Laerm;57653;51.434;5.984;2023-04-15T00:28:53;34.24;31.76;38.44;;
69619;Laerm;57653;51.434;5.984;2023-04-15T00:29:04;33.95;32.53;36.20;;
69619;Laerm;57653;51.434;5.984;2023-04-15T00:29:14;35.23;32.65;40.07;;
69619;Laerm;57653;51.434;5.984;2023-04-15T00:29:24;35.13;32.54;38.34;;
69619;Laerm;57653;51.434;5.984;2023-04-15T00:29:35;33.50;32.13;35.58;;
69619;Laerm;57653;51.434;5.984;2023-04-15T00:29:45;33.06;31.67;35.27;;
69619;Laerm;57653;51.434;5.984;2023-04-15T00:29:55;32.84;31.74;34.64;;
69619;Laerm;57653;51.434;5.984;2023-04-15T00:30:06;32.90;31.68;34.08;;
69619;Laerm;57653;51.434;5.984;2023-04-15T00:30:17;32.84;31.85;34.03;;
69619;Laerm;57653;51.434;5.984;2023-04-15T00:30:27;32.79;31.71;34.08;;
69619;Laerm;57653;51.434;5.984;2023-04-15T00:30:38;32.79;31.55;33.83;;
69619;Laerm;57653;51.434;5.984;2023-04-15T00:30:48;32.82;31.73;34.19;;
69619;Laerm;57653;51.434;5.984;2023-04-15T00:30:59;32.85;31.52;34.36;;
69619;Laerm;57653;51.434;5.984;2023-04-15T00:31:09;34.01;31.80;41.15;;
69619;Laerm;57653;51.434;5.984;2023-04-15T00:31:20;33.08;31.91;35.03;;
69619;Laerm;57653;51.434;5.984;2023-04-15T00:31:30;33.10;31.82;34.47;;
69619;Laerm;57653;51.434;5.984;2023-04-15T00:31:41;33.03;31.62;34.87;;
69619;Laerm;57653;51.434;5.984;2023-04-15T00:31:52;33.24;31.85;36.05;;
69619;Laerm;57653;51.434;5.984;2023-04-15T00:32:02;33.34;32.06;38.41;;
69619;Laerm;57653;51.434;5.984;2023-04-15T00:32:12;33.24;31.90;36.47;;
69619;Laerm;57653;51.434;5.984;2023-04-15T00:32:22;33.26;31.41;35.15;;
69619;Laerm;57653;51.434;5.984;2023-04-15T00:32:33;33.29;31.84;36.03;;
69619;Laerm;57653;51.434;5.984;2023-04-15T00:32:43;33.27;32.05;35.26;;
69619;Laerm;57653;51.434;5.984;2023-04-15T00:32:53;33.43;31.82;35.90;;
69619;Laerm;57653;51.434;5.984;2023-04-15T00:33:04;33.18;32.10;36.64;;
69619;Laerm;57653;51.434;5.984;2023-04-15T00:33:14;33.25;32.22;35.44;;
69619;Laerm;57653;51.434;5.984;2023-04-15T00:33:25;33.16;31.92;34.72;;
69619;Laerm;57653;51.434;5.984;2023-04-15T00:33:35;33.12;31.87;34.19;;
69619;Laerm;57653;51.434;5.984;2023-04-15T00:33:46;33.19;31.94;34.35;;
69619;Laerm;57653;51.434;5.984;2023-04-15T00:33:56;33.79;32.30;35.25;;
69619;Laerm;57653;51.434;5.984;2023-04-15T00:34:07;33.90;32.49;35.00;;
69619;Laerm;57653;51.434;5.984;2023-04-15T00:34:17;34.28;32.78;36.57;;
69619;Laerm;57653;51.434;5.984;2023-04-15T00:34:28;43.42;34.84;51.66;;
69619;Laerm;57653;51.434;5.984;2023-04-15T00:34:38;58.85;49.42;62.72;;
69619;Laerm;57653;51.434;5.984;2023-04-15T00:34:49;61.68;60.01;65.47;;
69619;Laerm;57653;51.434;5.984;2023-04-15T00:34:59;59.48;50.49;62.84;;
69619;Laerm;57653;51.434;5.984;2023-04-15T00:35:10;44.79;36.43;52.59;;
69619;Laerm;57653;51.434;5.984;2023-04-15T00:35:20;34.31;32.72;36.67;;
69619;Laerm;57653;51.434;5.984;2023-04-15T00:35:30;33.39;32.10;34.82;;
69619;Laerm;57653;51.434;5.984;2023-04-15T00:35:41;33.20;32.09;34.19;;
69619;Laerm;57653;51.434;5.984;2023-04-15T00:35:52;33.10;31.82;34.13;;
69619;Laerm;57653;51.434;5.984;2023-04-15T00:36:03;33.06;32.06;34.02;;
69619;Laerm;57653;51.434;5.984;2023-04-15T00:36:13;33.08;31.75;33.99;;
69619;Laerm;57653;51.434;5.984;2023-04-15T00:36:23;33.10;32.09;34.30;;
69619;Laerm;57653;51.434;5.984;2023-04-15T00:36:34;33.15;32.08;34.13;;
69619;Laerm;57653;51.434;5.984;2023-04-15T00:36:45;33.13;31.76;34.17;;
69619;Laerm;57653;51.434;5.984;2023-04-15T00:36:55;33.15;31.93;34.19;;
69619;Laerm;57653;51.434;5.984;2023-04-15T00:37:06;33.11;31.96;34.74;;
69619;Laerm;57653;51.434;5.984;2023-04-15T00:37:16;33.13;31.64;34.12;;
69619;Laerm;57653;51.434;5.984;2023-04-15T00:37:26;33.16;31.92;34.33;;
69619;Laerm;57653;51.434;5.984;2023-04-15T00:37:36;33.16;32.01;34.22;;
69619;Laerm;57653;51.434;5.984;2023-04-15T00:37:47;33.26;31.97;34.32;;
69619;Laerm;57653;51.434;5.984;2023-04-15T00:37:57;33.29;31.70;34.23;;
69619;Laerm;57653;51.434;5.984;2023-04-15T00:38:07;33.24;32.15;34.08;;
69619;Laerm;57653;51.434;5.984;2023-04-15T00:38:18;33.31;32.38;34.29;;
69619;Laerm;57653;51.434;5.984;2023-04-15T00:38:28;33.47;32.31;35.15;;
69619;Laerm;57653;51.434;5.984;2023-04-15T00:38:38;33.43;32.16;34.37;;
69619;Laerm;57653;51.434;5.984;2023-04-15T00:38:49;33.35;32.18;34.47;;
69619;Laerm;57653;51.434;5.984;2023-04-15T00:38:59;33.23;32.15;34.23;;
69619;Laerm;57653;51.434;5.984;2023-04-15T00:39:09;33.29;32.16;34.53;;
69619;Laerm;57653;51.434;5.984;2023-04-15T00:39:21;33.46;32.32;35.21;;
69619;Laerm;57653;51.434;5.984;2023-04-15T00:39:31;33.48;32.37;35.02;;
69619;Laerm;57653;51.434;5.984;2023-04-15T00:39:42;33.44;32.16;34.59;;
69619;Laerm;57653;51.434;5.984;2023-04-15T00:39:53;33.71;32.53;34.83;;
69619;Laerm;57653;51.434;5.984;2023-04-15T00:40:03;33.36;32.20;34.59;;
69619;Laerm;57653;51.434;5.984;2023-04-15T00:40:16;33.54;32.38;35.06;;
69619;Laerm;57653;51.434;5.984;2023-04-15T00:40:27;33.84;32.42;35.42;;
69619;Laerm;57653;51.434;5.984;2023-04-15T00:40:38;33.37;32.27;34.70;;
69619;Laerm;57653;51.434;5.984;2023-04-15T00:40:48;33.19;32.14;34.03;;
69619;Laerm;57653;51.434;5.984;2023-04-15T00:40:58;33.24;31.89;34.37;;
69619;Laerm;57653;51.434;5.984;2023-04-15T00:41:09;33.24;31.99;34.59;;
69619;Laerm;57653;51.434;5.984;2023-04-15T00:41:19;33.21;32.14;34.29;;
69619;Laerm;57653;51.434;5.984;2023-04-15T00:41:30;33.16;31.89;34.00;;
69619;Laerm;57653;51.434;5.984;2023-04-15T00:41:41;33.18;32.19;34.64;;
69619;Laerm;57653;51.434;5.984;2023-04-15T00:41:51;33.33;32.20;35.26;;
69619;Laerm;57653;51.434;5.984;2023-04-15T00:42:03;33.21;31.92;34.79;;
69619;Laerm;57653;51.434;5.984;2023-04-15T00:42:14;33.31;32.12;34.74;;
69619;Laerm;57653;51.434;5.984;2023-04-15T00:42:24;33.22;32.00;37.31;;
69619;Laerm;57653;51.434;5.984;2023-04-15T00:42:35;33.20;32.01;34.29;;
69619;Laerm;57653;51.434;5.984;2023-04-15T00:42:45;33.19;32.32;34.11;;
69619;Laerm;57653;51.434;5.984;2023-04-15T00:42:55;33.17;32.17;34.33;;
69619;Laerm;57653;51.434;5.984;2023-04-15T00:43:06;33.13;32.10;34.71;;
69619;Laerm;57653;51.434;5.984;2023-04-15T00:43:16;33.15;31.97;34.06;;
69619;Laerm;57653;51.434;5.984;2023-04-15T00:43:26;33.18;32.25;34.12;;
69619;Laerm;57653;51.434;5.984;2023-04-15T00:43:36;33.08;32.18;34.15;;
69619;Laerm;57653;51.434;5.984;2023-04-15T00:43:47;33.20;32.00;34.42;;
69619;Laerm;57653;51.434;5.984;2023-04-15T00:43:57;33.20;32.00;34.24;;
69619;Laerm;57653;51.434;5.984;2023-04-15T00:44:08;33.20;31.86;34.43;;
69619;Laerm;57653;51.434;5.984;2023-04-15T00:44:19;33.14;31.69;34.06;;
69619;Laerm;57653;51.434;5.984;2023-04-15T00:44:30;33.23;32.19;34.38;;
69619;Laerm;57653;51.434;5.984;2023-04-15T00:44:40;33.21;31.57;34.68;;
69619;Laerm;57653;51.434;5.984;2023-04-15T00:44:51;33.18;32.16;34.34;;
69619;Laerm;57653;51.434;5.984;2023-04-15T00:45:02;33.21;32.15;34.27;;
69619;Laerm;57653;51.434;5.984;2023-04-15T00:45:12;33.23;32.37;34.30;;
69619;Laerm;57653;51.434;5.984;2023-04-15T00:45:23;33.26;31.95;34.31;;
69619;Laerm;57653;51.434;5.984;2023-04-15T00:45:33;33.24;32.08;34.09;;
69619;Laerm;57653;51.434;5.984;2023-04-15T00:45:43;33.28;32.21;34.38;;
69619;Laerm;57653;51.434;5.984;2023-04-15T00:45:53;33.23;32.24;34.42;;
69619;Laerm;57653;51.434;5.984;2023-04-15T00:46:06;33.22;32.23;34.41;;
69619;Laerm;57653;51.434;5.984;2023-04-15T00:46:16;33.23;32.18;34.14;;
69619;Laerm;57653;51.434;5.984;2023-04-15T00:46:29;33.25;32.03;34.39;;
69619;Laerm;57653;51.434;5.984;2023-04-15T00:46:40;33.25;32.10;34.37;;
69619;Laerm;57653;51.434;5.984;2023-04-15T00:46:52;33.28;32.37;34.30;;
69619;Laerm;57653;51.434;5.984;2023-04-15T00:47:03;33.27;32.21;34.56;;
69619;Laerm;57653;51.434;5.984;2023-04-15T00:47:13;33.30;31.99;34.40;;
69619;Laerm;57653;51.434;5.984;2023-04-15T00:47:25;33.33;31.98;34.34;;
69619;Laerm;57653;51.434;5.984;2023-04-15T00:47:36;33.50;31.76;34.44;;
69619;Laerm;57653;51.434;5.984;2023-04-15T00:47:48;33.67;32.51;35.24;;
69619;Laerm;57653;51.434;5.984;2023-04-15T00:47:58;34.04;32.64;35.96;;
69619;Laerm;57653;51.434;5.984;2023-04-15T00:48:08;34.12;32.57;36.43;;
69619;Laerm;57653;51.434;5.984;2023-04-15T00:48:20;33.97;32.24;36.20;;
69619;Laerm;57653;51.434;5.984;2023-04-15T00:48:30;34.07;32.58;35.74;;
69619;Laerm;57653;51.434;5.984;2023-04-15T00:48:41;33.90;32.12;35.34;;
69619;Laerm;57653;51.434;5.984;2023-04-15T00:48:51;33.76;32.34;35.03;;
69619;Laerm;57653;51.434;5.984;2023-04-15T00:49:04;33.67;32.16;38.07;;
69619;Laerm;57653;51.434;5.984;2023-04-15T00:49:15;33.45;32.33;34.46;;
69619;Laerm;57653;51.434;5.984;2023-04-15T00:49:26;33.50;32.22;34.52;;
69619;Laerm;57653;51.434;5.984;2023-04-15T00:49:37;33.51;32.39;34.66;;
69619;Laerm;57653;51.434;5.984;2023-04-15T00:49:48;33.57;32.47;35.06;;
69619;Laerm;57653;51.434;5.984;2023-04-15T00:49:58;33.47;32.54;34.75;;
69619;Laerm;57653;51.434;5.984;2023-04-15T00:50:09;33.47;32.45;36.41;;
69619;Laerm;57653;51.434;5.984;2023-04-15T00:50:19;33.60;32.32;34.96;;
69619;Laerm;57653;51.434;5.984;2023-04-15T00:50:29;39.66;33.02;46.51;;
69619;Laerm;57653;51.434;5.984;2023-04-15T00:50:39;57.90;44.67;64.99;;
69619;Laerm;57653;51.434;5.984;2023-04-15T00:50:50;61.27;57.62;63.74;;
69619;Laerm;57653;51.434;5.984;2023-04-15T00:51:00;53.51;41.92;59.98;;
69619;Laerm;57653;51.434;5.984;2023-04-15T00:51:11;41.26;35.71;46.03;;
69619;Laerm;57653;51.434;5.984;2023-04-15T00:51:22;36.78;35.14;39.07;;
69619;Laerm;57653;51.434;5.984;2023-04-15T00:51:33;37.65;35.31;40.71;;
69619;Laerm;57653;51.434;5.984;2023-04-15T00:51:45;37.40;33.87;40.17;;
69619;Laerm;57653;51.434;5.984;2023-04-15T00:51:56;34.41;32.81;36.17;;
69619;Laerm;57653;51.434;5.984;2023-04-15T00:52:06;34.16;32.72;35.71;;
69619;Laerm;57653;51.434;5.984;2023-04-15T00:52:18;35.01;33.39;37.84;;
69619;Laerm;57653;51.434;5.984;2023-04-15T00:52:28;33.75;32.38;35.55;;
69619;Laerm;57653;51.434;5.984;2023-04-15T00:52:38;33.50;32.43;34.66;;
69619;Laerm;57653;51.434;5.984;2023-04-15T00:52:49;33.39;32.29;34.37;;
69619;Laerm;57653;51.434;5.984;2023-04-15T00:52:59;33.31;32.04;34.26;;
69619;Laerm;57653;51.434;5.984;2023-04-15T00:53:09;33.41;32.37;34.39;;
69619;Laerm;57653;51.434;5.984;2023-04-15T00:53:19;33.40;32.49;34.82;;
69619;Laerm;57653;51.434;5.984;2023-04-15T00:53:30;33.30;32.13;34.29;;
69619;Laerm;57653;51.434;5.984;2023-04-15T00:53:40;33.31;32.34;34.67;;
69619;Laerm;57653;51.434;5.984;2023-04-15T00:53:50;33.28;32.28;34.34;;
69619;Laerm;57653;51.434;5.984;2023-04-15T00:54:07;33.31;32.14;34.36;;
69619;Laerm;57653;51.434;5.984;2023-04-15T00:54:17;33.40;32.24;34.84;;
69619;Laerm;57653;51.434;5.984;2023-04-15T00:54:27;33.28;32.31;34.40;;
69619;Laerm;57653;51.434;5.984;2023-04-15T00:54:37;33.32;32.24;34.89;;
69619;Laerm;57653;51.434;5.984;2023-04-15T00:54:48;33.32;32.12;34.28;;
69619;Laerm;57653;51.434;5.984;2023-04-15T00:55:00;33.28;32.10;34.13;;
69619;Laerm;57653;51.434;5.984;2023-04-15T00:55:11;33.27;32.27;34.54;;
69619;Laerm;57653;51.434;5.984;2023-04-15T00:55:21;33.30;32.15;34.29;;
69619;Laerm;57653;51.434;5.984;2023-04-15T00:55:32;33.28;32.11;34.24;;
69619;Laerm;57653;51.434;5.984;2023-04-15T00:55:42;33.28;32.06;34.32;;
69619;Laerm;57653;51.434;5.984;2023-04-15T00:55:52;33.26;32.13;34.23;;
69619;Laerm;57653;51.434;5.984;2023-04-15T00:56:03;33.31;31.86;34.34;;
69619;Laerm;57653;51.434;5.984;2023-04-15T00:56:13;33.27;32.01;34.17;;
69619;Laerm;57653;51.434;5.984;2023-04-15T00:56:24;33.22;32.22;34.30;;
69619;Laerm;57653;51.434;5.984;2023-04-15T00:56:35;33.25;32.36;34.42;;
69619;Laerm;57653;51.434;5.984;2023-04-15T00:56:46;33.22;32.23;34.24;;
69619;Laerm;57653;51.434;5.984;2023-04-15T00:56:56;33.25;32.08;34.20;;
69619;Laerm;57653;51.434;5.984;2023-04-15T00:57:07;33.22;31.95;34.42;;
69619;Laerm;57653;51.434;5.984;2023-04-15T00:57:18;33.28;32.19;36.16;;
69619;Laerm;57653;51.434;5.984;2023-04-15T00:57:28;33.25;32.06;34.21;;
69619;Laerm;57653;51.434;5.984;2023-04-15T00:57:38;33.21;31.69;34.35;;
69619;Laerm;57653;51.434;5.984;2023-04-15T00:57:49;33.24;31.95;34.24;;
69619;Laerm;57653;51.434;5.984;2023-04-15T00:58:00;33.25;32.20;34.19;;
69619;Laerm;57653;51.434;5.984;2023-04-15T00:58:10;33.23;32.15;34.37;;
69619;Laerm;57653;51.434;5.984;2023-04-15T00:58:20;33.30;32.00;34.45;;
69619;Laerm;57653;51.434;5.984;2023-04-15T00:58:31;33.29;32.02;34.37;;
69619;Laerm;57653;51.434;5.984;2023-04-15T00:58:41;33.29;32.29;34.22;;
69619;Laerm;57653;51.434;5.984;2023-04-15T00:58:52;33.26;32.22;34.34;;
69619;Laerm;57653;51.434;5.984;2023-04-15T00:59:02;33.22;32.34;34.20;;
69619;Laerm;57653;51.434;5.984;2023-04-15T00:59:13;33.27;32.16;34.16;;
69619;Laerm;57653;51.434;5.984;2023-04-15T00:59:24;33.35;32.23;34.24;;
69619;Laerm;57653;51.434;5.984;2023-04-15T00:59:34;33.31;32.25;34.16;;
69619;Laerm;57653;51.434;5.984;2023-04-15T00:59:45;33.34;32.16;34.31;;